Time;durP1;ratioP1;P1;durP2;ratioP2;P2;SDS_P1;SDS_P2;PMS_P1;PMS_P2;Temp;Humidity;BMP_temperature;BMP_pressure;BME280_temperature;BME280_humidity;BME280_pressure;Samples;Min_cycle;Max_cycle;Signal;HPM_P1;HPM_P2
2022/08/13 00:00:45;;;;;;;2.67;1.97;;;17.20;92.70;;;;;;4943241;28;20969;-91
2022/08/13 00:03:13;;;;;;;3.33;2.10;;;17.10;93.00;;;;;;4957032;28;20458;-90
2022/08/13 00:05:43;;;;;;;3.07;2.43;;;17.10;92.90;;;;;;4943772;28;20185;-90
2022/08/13 00:08:11;;;;;;;2.67;2.17;;;17.10;92.90;;;;;;4943883;28;20445;-90
2022/08/13 00:10:37;;;;;;;2.30;2.17;;;17.00;93.10;;;;;;4959731;28;20453;-89
2022/08/13 00:13:06;;;;;;;2.37;2.17;;;17.00;93.10;;;;;;4945901;28;20834;-89
2022/08/13 00:15:43;;;;;;;2.53;2.33;;;16.90;93.40;;;;;;4948898;28;20182;-90
2022/08/13 00:18:12;;;;;;;2.57;2.37;;;16.80;93.60;;;;;;4943428;28;20492;-89
2022/08/13 00:20:44;;;;;;;2.50;2.30;;;16.80;93.80;;;;;;4941708;28;20437;-89
2022/08/13 00:23:28;;;;;;;2.37;2.27;;;16.90;93.40;;;;;;4949895;28;20556;-90
2022/08/13 00:25:58;;;;;;;2.80;2.27;;;16.80;94.00;;;;;;4945472;28;20457;-90
2022/08/13 00:28:32;;;;;;;2.33;2.23;;;16.90;94.30;;;;;;4971876;28;20444;-90
2022/08/13 00:31:00;;;;;;;3.10;2.20;;;17.00;94.60;;;;;;4953976;28;20440;-90
2022/08/13 00:33:29;;;;;;;2.40;2.20;;;16.80;94.80;;;;;;4962046;28;20457;-90
2022/08/13 00:35:55;;;;;;;1.90;1.80;;;16.70;95.20;;;;;;4964705;28;20469;-89
2022/08/13 00:38:23;;;;;;;2.10;2.00;;;16.70;95.40;;;;;;4946184;28;20529;-89
2022/08/13 00:40:57;;;;;;;2.10;2.00;;;16.70;95.10;;;;;;4959024;28;20547;-89
2022/08/13 00:43:34;;;;;;;2.47;2.37;;;16.60;96.10;;;;;;4945074;28;20664;-90
2022/08/13 00:46:08;;;;;;;2.50;2.30;;;16.40;96.00;;;;;;4955544;28;20448;-89
2022/08/13 00:48:42;;;;;;;2.60;2.40;;;16.40;95.90;;;;;;4927909;28;20519;-91
2022/08/13 00:51:10;;;;;;;2.50;2.40;;;16.40;96.10;;;;;;4943509;28;20444;-90
2022/08/13 00:53:40;;;;;;;2.40;2.30;;;16.20;96.70;;;;;;4942072;28;20449;-88
2022/08/13 00:56:09;;;;;;;2.20;2.07;;;16.20;96.80;;;;;;4943692;28;20513;-87
2022/08/13 00:58:35;;;;;;;2.30;2.20;;;16.20;96.90;;;;;;4943367;28;20469;-85
2022/08/13 01:01:02;;;;;;;2.67;2.47;;;16.10;97.40;;;;;;4936531;28;20438;-85
2022/08/13 01:03:30;;;;;;;2.23;2.13;;;16.10;98.00;;;;;;4943070;28;20942;-85
2022/08/13 01:05:59;;;;;;;2.67;2.47;;;16.10;97.90;;;;;;4942373;28;21537;-86
2022/08/13 01:08:26;;;;;;;2.60;2.50;;;16.00;98.30;;;;;;4946082;28;20441;-86
2022/08/13 01:10:56;;;;;;;2.53;2.37;;;16.00;98.30;;;;;;4963611;28;20449;-85
2022/08/13 01:13:25;;;;;;;2.87;2.67;;;15.90;98.80;;;;;;4948060;28;20536;-85
2022/08/13 01:15:51;;;;;;;2.97;2.77;;;15.90;98.40;;;;;;4940495;28;20469;-85
2022/08/13 01:18:20;;;;;;;2.83;2.63;;;16.10;98.30;;;;;;4944834;28;20503;-86
2022/08/13 01:20:48;;;;;;;2.50;2.30;;;16.20;98.10;;;;;;4943062;28;20487;-87
2022/08/13 01:23:15;;;;;;;4.33;2.87;;;16.30;97.70;;;;;;4941592;28;20508;-85
2022/08/13 01:25:44;;;;;;;2.33;2.20;;;16.30;97.70;;;;;;4938321;28;20463;-86
2022/08/13 01:28:13;;;;;;;2.57;2.30;;;16.30;98.00;;;;;;4938815;28;20452;-86
2022/08/13 01:30:44;;;;;;;2.50;2.30;;;16.20;97.80;;;;;;4942190;28;20491;-85
2022/08/13 01:33:11;;;;;;;2.83;2.50;;;16.30;97.70;;;;;;4943784;28;21195;-84
2022/08/13 01:35:38;;;;;;;2.30;2.20;;;16.60;97.10;;;;;;4944515;28;20452;-86
2022/08/13 01:38:03;;;;;;;3.00;2.63;;;16.70;96.70;;;;;;4954553;28;20464;-86
2022/08/13 01:40:30;;;;;;;3.10;2.30;;;16.80;96.20;;;;;;4946547;28;20984;-86
2022/08/13 01:42:58;;;;;;;2.20;2.10;;;16.80;96.00;;;;;;4959071;28;20213;-85
2022/08/13 01:45:26;;;;;;;3.07;2.87;;;16.80;96.40;;;;;;4959361;28;20442;-86
2022/08/13 01:50:36;;;;;;;2.50;2.40;;;16.90;96.20;;;;;;4963275;28;20969;-85
2022/08/13 01:53:03;;;;;;;2.30;2.20;;;16.90;96.40;;;;;;4952405;28;20470;-85
2022/08/13 01:55:39;;;;;;;2.90;2.70;;;16.80;96.70;;;;;;4942597;28;20445;-85
2022/08/13 01:58:17;;;;;;;2.40;2.30;;;16.70;96.80;;;;;;4947718;28;20555;-85
2022/08/13 02:00:44;;;;;;;4.10;2.97;;;16.70;96.70;;;;;;4939565;28;20827;-86
2022/08/13 02:03:14;;;;;;;3.07;2.77;;;16.60;97.00;;;;;;4945371;28;20500;-86
2022/08/13 02:05:40;;;;;;;2.90;2.70;;;16.60;97.50;;;;;;4948613;28;22008;-86
2022/08/13 02:08:08;;;;;;;2.50;2.40;;;16.50;97.70;;;;;;4949652;28;20468;-85
2022/08/13 02:10:36;;;;;;;2.67;2.57;;;16.50;97.80;;;;;;4960060;28;21348;-85
2022/08/13 02:13:04;;;;;;;2.50;2.40;;;16.60;97.50;;;;;;4952161;28;20441;-86
2022/08/13 02:15:29;;;;;;;2.87;2.60;;;16.60;97.10;;;;;;4944824;28;20620;-85
2022/08/13 02:17:55;;;;;;;2.70;2.50;;;16.60;97.40;;;;;;4952158;28;20581;-86
2022/08/13 02:20:21;;;;;;;2.77;2.57;;;16.50;97.90;;;;;;4958869;28;20201;-86
2022/08/13 02:22:49;;;;;;;2.83;2.63;;;16.40;98.20;;;;;;4961635;28;20232;-86
2022/08/13 02:25:16;;;;;;;2.90;2.70;;;16.30;98.50;;;;;;4942676;28;20221;-86
2022/08/13 02:27:44;;;;;;;2.70;2.50;;;16.20;99.00;;;;;;4959522;28;20460;-85
2022/08/13 02:30:11;;;;;;;3.20;2.90;;;16.10;99.30;;;;;;4950021;28;20452;-84
2022/08/13 02:32:39;;;;;;;3.60;2.73;;;16.10;99.40;;;;;;4955539;28;20455;-85
2022/08/13 02:35:06;;;;;;;3.30;2.73;;;16.00;99.70;;;;;;4957231;28;22071;-84
2022/08/13 02:37:32;;;;;;;2.83;2.63;;;15.90;99.90;;;;;;4960470;28;20904;-84
2022/08/13 02:40:00;;;;;;;3.30;2.70;;;15.90;99.90;;;;;;4944030;28;20822;-84
2022/08/13 02:42:31;;;;;;;2.90;2.80;;;15.80;99.90;;;;;;4948379;28;20467;-85
2022/08/13 02:44:57;;;;;;;3.00;2.80;;;15.90;99.90;;;;;;4943805;28;20460;-85
2022/08/13 02:47:24;;;;;;;4.97;2.53;;;15.90;99.90;;;;;;4958560;28;20950;-85
2022/08/13 02:49:51;;;;;;;3.17;2.83;;;15.90;99.90;;;;;;4945664;28;20445;-84
2022/08/13 02:52:19;;;;;;;3.20;3.00;;;16.00;99.90;;;;;;4958570;28;20558;-86
2022/08/13 02:54:47;;;;;;;3.33;3.13;;;16.10;99.90;;;;;;4961061;28;20472;-86
2022/08/13 02:57:14;;;;;;;3.03;2.83;;;15.90;99.90;;;;;;4960617;28;20445;-86
2022/08/13 02:59:41;;;;;;;4.00;2.97;;;15.80;99.90;;;;;;4947076;28;20461;-86
2022/08/13 03:02:10;;;;;;;3.37;2.80;;;15.80;99.90;;;;;;4956986;28;20441;-87
2022/08/13 03:04:36;;;;;;;3.40;2.50;;;15.90;99.90;;;;;;4946299;28;20531;-87
2022/08/13 03:07:03;;;;;;;2.87;2.67;;;15.80;99.90;;;;;;4943177;28;21885;-87
2022/08/13 03:09:30;;;;;;;2.73;2.53;;;15.80;99.90;;;;;;4944595;28;20490;-87
2022/08/13 03:11:59;;;;;;;2.90;2.70;;;15.80;99.90;;;;;;4959912;28;20860;-87
2022/08/13 03:14:26;;;;;;;3.07;2.87;;;15.70;99.90;;;;;;4964083;28;20473;-87
2022/08/13 03:16:52;;;;;;;2.93;2.73;;;15.80;99.90;;;;;;4942792;28;20469;-87
2022/08/13 03:19:17;;;;;;;3.10;2.90;;;15.70;99.90;;;;;;4960556;28;20532;-86
2022/08/13 03:21:43;;;;;;;4.00;3.70;;;15.50;99.90;;;;;;4945686;28;20209;-87
2022/08/13 03:24:19;;;;;;;3.77;3.47;;;15.30;99.90;;;;;;4946470;28;20590;-86
2022/08/13 03:26:45;;;;;;;3.40;3.10;;;15.30;99.90;;;;;;4945112;28;20442;-87
2022/08/13 03:29:11;;;;;;;3.37;3.10;;;15.30;99.90;;;;;;4942287;28;20451;-86
2022/08/13 03:31:37;;;;;;;2.90;2.60;;;15.40;99.90;;;;;;4941559;28;20213;-86
2022/08/13 03:34:04;;;;;;;3.30;3.10;;;15.40;99.90;;;;;;4947589;28;20243;-86
2022/08/13 03:36:31;;;;;;;3.20;3.00;;;15.30;99.90;;;;;;4945964;28;20994;-87
2022/08/13 03:38:58;;;;;;;3.23;3.00;;;15.20;99.90;;;;;;4941509;28;20445;-87
2022/08/13 03:41:24;;;;;;;3.07;2.77;;;15.20;99.90;;;;;;4960869;28;20506;-87
2022/08/13 03:43:51;;;;;;;4.23;3.07;;;15.30;99.90;;;;;;4947038;28;20470;-86
2022/08/13 03:46:18;;;;;;;2.90;2.70;;;15.20;99.90;;;;;;4947157;28;20449;-86
2022/08/13 03:48:45;;;;;;;3.37;3.17;;;15.10;99.90;;;;;;4937735;28;20448;-86
2022/08/13 03:51:11;;;;;;;3.03;2.83;;;15.10;99.90;;;;;;4939446;28;21010;-87
2022/08/13 03:53:38;;;;;;;3.10;2.90;;;15.10;99.90;;;;;;4957587;28;20495;-87
2022/08/13 03:56:06;;;;;;;2.93;2.73;;;15.00;99.90;;;;;;4945795;28;20444;-88
2022/08/13 03:58:32;;;;;;;3.10;2.90;;;15.10;99.90;;;;;;4958506;28;21741;-87
2022/08/13 04:00:59;;;;;;;3.40;3.20;;;15.00;99.90;;;;;;4957310;28;20453;-87
2022/08/13 04:03:28;;;;;;;2.70;2.60;;;14.90;99.90;;;;;;4948175;28;20957;-87
2022/08/13 04:06:00;;;;;;;3.00;2.80;;;14.90;99.90;;;;;;4946101;28;20444;-87
2022/08/13 04:08:35;;;;;;;5.33;3.10;;;15.00;99.90;;;;;;4940543;28;20569;-88
2022/08/13 04:11:05;;;;;;;3.40;3.20;;;14.80;99.90;;;;;;4939018;28;20468;-87
2022/08/13 04:13:36;;;;;;;3.47;3.27;;;14.70;99.90;;;;;;4941368;28;20543;-87
2022/08/13 04:16:08;;;;;;;3.77;3.30;;;14.60;99.90;;;;;;4960662;28;20491;-87
2022/08/13 04:18:36;;;;;;;3.07;2.87;;;14.50;99.90;;;;;;4960442;28;20453;-87
2022/08/13 04:21:08;;;;;;;3.10;2.90;;;14.40;99.90;;;;;;4957712;28;20446;-88
2022/08/13 04:23:36;;;;;;;3.70;3.40;;;14.40;99.90;;;;;;4944389;28;20568;-87
2022/08/13 04:26:03;;;;;;;3.00;2.80;;;14.40;99.90;;;;;;4942990;28;20587;-87
2022/08/13 04:28:28;;;;;;;3.50;3.30;;;14.40;99.90;;;;;;4946496;28;20540;-87
2022/08/13 04:30:54;;;;;;;4.20;3.70;;;14.40;99.90;;;;;;4953046;28;20448;-87
2022/08/13 04:33:20;;;;;;;3.70;3.30;;;14.40;99.90;;;;;;4968304;28;20189;-86
2022/08/13 04:35:48;;;;;;;3.10;2.90;;;14.40;99.90;;;;;;4955573;28;20453;-87
2022/08/13 04:38:14;;;;;;;3.80;3.50;;;14.40;99.90;;;;;;4953593;28;20222;-86
2022/08/13 04:40:42;;;;;;;5.03;3.07;;;14.50;99.90;;;;;;4948065;28;20441;-86
2022/08/13 04:43:10;;;;;;;3.57;3.27;;;14.30;99.90;;;;;;4960633;28;20472;-86
2022/08/13 04:45:36;;;;;;;3.60;3.40;;;14.30;99.90;;;;;;4947850;28;20448;-87
2022/08/13 04:48:07;;;;;;;4.30;3.90;;;14.40;99.90;;;;;;4956069;28;21006;-86
2022/08/13 04:50:34;;;;;;;3.13;2.93;;;14.40;99.90;;;;;;4948994;28;20482;-86
2022/08/13 04:53:01;;;;;;;3.50;3.30;;;14.60;99.90;;;;;;4939405;28;20452;-85
2022/08/13 04:55:28;;;;;;;3.10;2.90;;;14.60;99.90;;;;;;4938956;28;20859;-86
2022/08/13 04:57:53;;;;;;;3.70;3.03;;;14.70;99.90;;;;;;4947666;28;20583;-87
2022/08/13 05:00:24;;;;;;;3.50;3.30;;;14.60;99.90;;;;;;4946532;28;20445;-86
2022/08/13 05:02:52;;;;;;;3.80;3.50;;;14.60;99.90;;;;;;4962741;28;20189;-86
2022/08/13 05:05:20;;;;;;;4.10;3.80;;;14.70;99.90;;;;;;4950003;28;20532;-86
2022/08/13 05:07:48;;;;;;;3.73;3.53;;;14.70;99.90;;;;;;4938762;28;20453;-86
2022/08/13 05:10:14;;;;;;;3.50;3.30;;;14.70;99.90;;;;;;4935385;28;20449;-86
2022/08/13 05:12:42;;;;;;;3.80;3.50;;;14.70;99.90;;;;;;4953389;28;20474;-86
2022/08/13 05:15:08;;;;;;;3.50;3.30;;;14.70;99.90;;;;;;4942935;28;20578;-86
2022/08/13 05:17:34;;;;;;;3.67;3.47;;;14.80;99.90;;;;;;4949418;28;20448;-86
2022/08/13 05:20:00;;;;;;;4.33;4.03;;;14.90;99.90;;;;;;4957257;28;20440;-87
2022/08/13 05:22:28;;;;;;;3.77;3.47;;;14.80;99.90;;;;;;4956105;28;20186;-86
2022/08/13 05:24:53;;;;;;;3.93;3.43;;;14.90;99.90;;;;;;4959647;28;20232;-87
2022/08/13 05:27:19;;;;;;;4.10;3.27;;;15.10;99.90;;;;;;4941125;28;20438;-88
2022/08/13 05:29:46;;;;;;;3.60;3.40;;;15.30;99.90;;;;;;4953563;28;20707;-87
2022/08/13 05:32:11;;;;;;;3.60;3.40;;;15.40;99.90;;;;;;4962714;28;20564;-86
2022/08/13 05:34:37;;;;;;;4.67;3.17;;;15.60;99.90;;;;;;4950934;28;20454;-87
2022/08/13 05:37:04;;;;;;;3.40;3.10;;;15.70;99.90;;;;;;4936910;28;20191;-86
2022/08/13 05:39:30;;;;;;;3.40;3.10;;;15.90;99.90;;;;;;4957164;28;21157;-88
2022/08/13 05:41:56;;;;;;;3.60;3.30;;;16.10;99.90;;;;;;4945302;28;21508;-88
2022/08/13 05:44:22;;;;;;;3.20;3.00;;;16.20;99.90;;;;;;4942358;28;21309;-86
2022/08/13 05:46:50;;;;;;;3.47;3.23;;;16.30;99.90;;;;;;4961335;28;20186;-86
2022/08/13 05:49:16;;;;;;;3.37;3.17;;;16.50;99.90;;;;;;4953262;28;20478;-86
2022/08/13 05:51:43;;;;;;;3.30;3.10;;;16.60;99.90;;;;;;4950314;28;20436;-87
2022/08/13 05:54:10;;;;;;;3.80;3.50;;;16.80;99.90;;;;;;4949707;28;20240;-85
2022/08/13 05:56:37;;;;;;;3.00;2.80;;;16.90;99.90;;;;;;4968029;28;20451;-88
2022/08/13 05:59:06;;;;;;;2.97;2.87;;;17.00;99.90;;;;;;4944945;28;20457;-89
2022/08/13 06:04:18;;;;;;;3.23;3.03;;;17.20;99.90;;;;;;4962562;28;20516;-87
2022/08/13 06:06:51;;;;;;;3.60;3.20;;;17.30;99.90;;;;;;4948225;28;20443;-88
2022/08/13 06:09:18;;;;;;;3.40;3.20;;;17.50;99.90;;;;;;4946425;28;21700;-87
2022/08/13 06:12:10;;;;;;;3.40;3.20;;;17.50;99.90;;;;;;4951162;28;20980;-86
2022/08/13 06:14:35;;;;;;;3.27;3.07;;;17.70;99.90;;;;;;4931481;28;20453;-85
2022/08/13 06:17:02;;;;;;;3.23;3.03;;;17.80;99.90;;;;;;4937761;28;21019;-85
2022/08/13 06:19:38;;;;;;;3.40;3.20;;;18.00;99.90;;;;;;4937325;28;20557;-85
2022/08/13 06:22:04;;;;;;;4.30;3.90;;;18.10;99.90;;;;;;4937618;28;20451;-87
2022/08/13 06:24:33;;;;;;;3.70;3.33;;;18.40;99.90;;;;;;4963601;28;24688;-86
2022/08/13 06:27:01;;;;;;;3.67;3.37;;;18.70;99.40;;;;;;4926561;28;20450;-86
2022/08/13 06:29:29;;;;;;;3.63;3.30;;;19.00;98.50;;;;;;4938410;28;21843;-86
2022/08/13 06:31:58;;;;;;;4.03;3.20;;;19.10;98.60;;;;;;4938462;28;22014;-86
2022/08/13 06:34:24;;;;;;;4.23;3.57;;;19.30;97.50;;;;;;4946342;28;21449;-86
2022/08/13 06:36:49;;;;;;;3.70;3.50;;;19.40;97.50;;;;;;4955034;28;20442;-86
2022/08/13 06:39:17;;;;;;;4.00;3.73;;;19.30;97.40;;;;;;4945317;28;20189;-85
2022/08/13 06:41:45;;;;;;;4.20;3.50;;;19.20;97.80;;;;;;4938331;28;20333;-85
2022/08/13 06:44:11;;;;;;;3.50;3.30;;;19.30;97.60;;;;;;4944967;28;20508;-85
2022/08/13 06:46:39;;;;;;;4.67;4.37;;;19.40;97.60;;;;;;4944686;28;20440;-85
2022/08/13 06:49:09;;;;;;;3.47;3.27;;;19.30;96.90;;;;;;4957829;28;20455;-84
2022/08/13 06:51:35;;;;;;;3.60;3.30;;;19.30;96.70;;;;;;4946441;28;20444;-84
2022/08/13 06:54:00;;;;;;;3.53;3.23;;;19.20;96.50;;;;;;4943979;28;20463;-84
2022/08/13 06:56:29;;;;;;;3.40;3.20;;;19.20;96.40;;;;;;4957770;28;20229;-83
2022/08/13 06:58:58;;;;;;;4.20;3.80;;;19.20;96.40;;;;;;4957418;28;20565;-84
2022/08/13 07:01:25;;;;;;;4.60;3.70;;;19.00;96.60;;;;;;4953419;28;20445;-83
2022/08/13 07:03:51;;;;;;;4.33;3.93;;;19.10;97.40;;;;;;4940244;28;20527;-84
2022/08/13 07:06:20;;;;;;;4.03;3.63;;;19.20;97.00;;;;;;4942091;28;20551;-83
2022/08/13 07:08:46;;;;;;;3.67;3.47;;;19.50;96.70;;;;;;4942127;28;20452;-83
2022/08/13 07:11:21;;;;;;;3.50;3.30;;;19.60;96.20;;;;;;4945555;28;20441;-83
2022/08/13 07:13:49;;;;;;;3.10;2.90;;;19.90;96.20;;;;;;4959037;28;20452;-83
2022/08/13 07:16:17;;;;;;;3.47;3.23;;;19.90;96.20;;;;;;4939947;28;20968;-84
2022/08/13 07:18:46;;;;;;;3.33;3.03;;;20.10;95.40;;;;;;4941507;28;20479;-83
2022/08/13 07:21:14;;;;;;;4.10;3.60;;;20.20;95.00;;;;;;4951320;28;20442;-84
2022/08/13 07:23:42;;;;;;;7.73;3.53;;;20.40;95.00;;;;;;4942549;28;21368;-84
2022/08/13 07:26:09;;;;;;;3.90;3.70;;;20.50;94.80;;;;;;4947271;28;20443;-84
2022/08/13 07:28:35;;;;;;;3.53;3.33;;;20.60;94.20;;;;;;4944966;28;21362;-84
2022/08/13 07:31:05;;;;;;;4.17;3.77;;;20.50;94.10;;;;;;4944152;28;20460;-84
2022/08/13 07:33:34;;;;;;;3.70;3.50;;;20.60;94.10;;;;;;4950385;28;21883;-83
2022/08/13 07:36:08;;;;;;;3.40;3.17;;;20.70;94.60;;;;;;4956462;28;20556;-84
2022/08/13 07:38:35;;;;;;;3.90;3.60;;;20.90;94.00;;;;;;4945859;28;20457;-83
2022/08/13 07:41:03;;;;;;;3.97;3.67;;;20.90;93.20;;;;;;4940919;28;20737;-85
2022/08/13 07:43:32;;;;;;;3.13;2.90;;;20.90;93.30;;;;;;4942787;28;20528;-86
2022/08/13 07:46:07;;;;;;;3.60;3.40;;;20.90;93.60;;;;;;4952181;28;20449;-84
2022/08/13 07:48:35;;;;;;;3.53;3.23;;;21.00;93.50;;;;;;4949157;28;20455;-85
2022/08/13 07:51:02;;;;;;;4.07;3.53;;;21.20;93.80;;;;;;4942633;28;20441;-84
2022/08/13 07:53:28;;;;;;;3.07;2.87;;;21.20;92.90;;;;;;4933878;28;20445;-84
2022/08/13 07:55:54;;;;;;;3.87;3.67;;;21.30;92.90;;;;;;4937940;28;20846;-85
2022/08/13 07:58:22;;;;;;;3.80;2.93;;;21.50;93.00;;;;;;4944569;28;20444;-85
2022/08/13 08:01:08;;;;;;;4.03;3.73;;;21.50;93.60;;;;;;4932738;28;20444;-83
2022/08/13 08:03:37;;;;;;;4.30;3.23;;;21.60;93.10;;;;;;4946966;28;20568;-96
2022/08/13 08:06:32;;;;;;;3.30;3.10;;;21.80;92.60;;;;;;4979666;28;20441;-96
2022/08/13 08:09:22;;;;;;;3.53;3.23;;;21.90;92.00;;;;;;4965182;28;20444;-86
2022/08/13 08:14:37;;;;;;;3.63;3.40;;;22.10;92.10;;;;;;4959197;28;20535;-85
2022/08/13 08:17:05;;;;;;;4.00;3.37;;;22.10;92.20;;;;;;4934783;28;20466;-86
2022/08/13 08:19:31;;;;;;;3.43;3.23;;;22.20;92.10;;;;;;4951477;28;20487;-86
2022/08/13 08:22:02;;;;;;;3.20;2.90;;;22.30;91.40;;;;;;4920143;28;20457;-85
2022/08/13 08:24:32;;;;;;;3.47;3.27;;;22.00;91.20;;;;;;4933160;28;20492;-84
2022/08/13 08:27:03;;;;;;;3.90;3.60;;;21.80;91.10;;;;;;4943353;28;22501;-85
2022/08/13 08:29:32;;;;;;;3.20;3.00;;;21.60;92.00;;;;;;4969770;28;20528;-85
2022/08/13 08:31:59;;;;;;;3.47;3.17;;;21.60;92.10;;;;;;4956972;28;20475;-85
2022/08/13 08:34:25;;;;;;;3.47;3.27;;;21.60;91.80;;;;;;4952021;28;20474;-83
2022/08/13 08:36:53;;;;;;;3.10;2.90;;;21.70;92.00;;;;;;4949051;28;20835;-85
2022/08/13 08:44:48;;;;;;;4.33;3.17;;;21.90;91.20;;;;;;4960482;28;20518;-83
2022/08/13 08:47:14;;;;;;;3.20;3.00;;;22.20;91.80;;;;;;4946396;28;20510;-85
2022/08/13 08:49:43;;;;;;;3.30;3.07;;;22.30;91.20;;;;;;4947386;28;20442;-82
2022/08/13 08:52:09;;;;;;;4.10;3.80;;;22.40;91.00;;;;;;4940342;28;20854;-86
2022/08/13 08:54:36;;;;;;;3.20;2.97;;;22.60;90.60;;;;;;4954188;28;20990;-83
2022/08/13 08:57:04;;;;;;;3.13;2.93;;;22.80;88.60;;;;;;4961733;28;20477;-84
2022/08/13 08:59:39;;;;;;;3.13;2.93;;;22.80;88.50;;;;;;4947364;28;20757;-84
2022/08/13 09:02:24;;;;;;;2.87;2.67;;;23.00;88.20;;;;;;4953658;28;20466;-84
2022/08/13 09:04:54;;;;;;;2.90;2.70;;;23.50;87.80;;;;;;4944931;28;20507;-84
2022/08/13 09:07:23;;;;;;;3.10;2.90;;;23.90;84.80;;;;;;4947440;28;20449;-85
2022/08/13 09:09:57;;;;;;;3.20;3.00;;;24.00;83.70;;;;;;4952396;28;21822;-84
2022/08/13 09:12:26;;;;;;;3.03;2.73;;;24.00;83.70;;;;;;4943459;28;20981;-85
2022/08/13 09:14:53;;;;;;;2.77;2.67;;;24.20;82.50;;;;;;4956152;28;20453;-83
2022/08/13 09:17:19;;;;;;;11.07;3.33;;;24.30;83.30;;;;;;4965198;28;20449;-94
2022/08/13 09:19:44;;;;;;;3.17;2.97;;;24.20;82.10;;;;;;4971645;28;20532;-91
2022/08/13 09:22:14;;;;;;;3.00;2.80;;;24.10;82.30;;;;;;4954422;28;20544;-93
2022/08/13 09:24:46;;;;;;;3.47;2.70;;;24.00;82.60;;;;;;4957252;28;20217;-92
2022/08/13 09:27:16;;;;;;;3.20;2.90;;;24.10;83.90;;;;;;4946865;28;20438;-90
2022/08/13 09:29:42;;;;;;;4.80;3.20;;;24.50;82.50;;;;;;4945289;28;20613;-90
2022/08/13 09:32:09;;;;;;;2.67;2.57;;;25.00;81.60;;;;;;4952229;28;20508;-91
2022/08/13 09:34:39;;;;;;;3.07;2.50;;;25.30;80.30;;;;;;4954946;28;20441;-90
2022/08/13 09:37:08;;;;;;;2.60;2.43;;;25.30;78.30;;;;;;4955334;28;20922;-90
2022/08/13 09:39:43;;;;;;;3.43;3.20;;;25.70;76.20;;;;;;4945785;28;20478;-91
2022/08/13 09:42:16;;;;;;;3.57;3.27;;;26.00;75.60;;;;;;4957757;28;20444;-91
2022/08/13 09:44:44;;;;;;;3.00;2.80;;;25.80;77.70;;;;;;4933537;28;20473;-91
2022/08/13 09:47:28;;;;;;;2.93;2.73;;;25.50;73.80;;;;;;4958879;28;20511;-91
2022/08/13 09:49:55;;;;;;;3.53;2.83;;;25.00;77.00;;;;;;4953754;28;20484;-91
2022/08/13 09:52:20;;;;;;;3.07;2.87;;;24.90;76.60;;;;;;4975616;28;20457;-88
2022/08/13 09:54:50;;;;;;;3.40;2.73;;;24.80;75.20;;;;;;4965366;28;20811;-91
2022/08/13 09:57:20;;;;;;;3.13;2.87;;;24.90;75.80;;;;;;4957713;28;20914;-90
2022/08/13 09:59:47;;;;;;;3.13;2.83;;;25.00;78.00;;;;;;4952549;28;20456;-90
2022/08/13 10:02:14;;;;;;;3.57;3.27;;;25.10;75.80;;;;;;4952913;28;20440;-90
2022/08/13 10:04:42;;;;;;;3.77;3.33;;;25.10;74.70;;;;;;4945590;28;20535;-91
2022/08/13 10:07:08;;;;;;;3.00;2.70;;;25.10;74.80;;;;;;4948745;28;20444;-92
2022/08/13 10:09:36;;;;;;;4.40;3.07;;;25.10;74.40;;;;;;4952263;28;20450;-90
2022/08/13 10:12:06;;;;;;;2.80;2.60;;;25.10;75.00;;;;;;4976189;28;20520;-90
2022/08/13 10:14:34;;;;;;;2.90;2.60;;;25.30;73.80;;;;;;4958426;28;20962;-91
2022/08/13 10:17:01;;;;;;;4.03;2.77;;;25.10;74.00;;;;;;4955452;28;20428;-91
2022/08/13 10:19:29;;;;;;;3.03;2.83;;;25.40;73.90;;;;;;4951060;28;20467;-90
2022/08/13 10:21:55;;;;;;;3.17;2.87;;;25.20;73.40;;;;;;4959539;28;20428;-90
2022/08/13 10:24:21;;;;;;;3.50;3.30;;;25.10;73.20;;;;;;4955435;28;20484;-90
2022/08/13 10:26:46;;;;;;;3.20;3.00;;;25.20;72.10;;;;;;4956479;28;21014;-90
2022/08/13 10:29:27;;;;;;;2.90;2.70;;;25.50;73.80;;;;;;4953886;28;20230;-91
2022/08/13 10:31:53;;;;;;;3.13;2.93;;;26.20;73.90;;;;;;4959981;28;20189;-91
2022/08/13 10:34:22;;;;;;;3.83;2.80;;;26.60;72.60;;;;;;4970849;28;21298;-92
2022/08/13 10:36:49;;;;;;;4.03;2.70;;;27.20;70.80;;;;;;4957261;28;20213;-90
2022/08/13 10:39:14;;;;;;;3.27;3.07;;;27.40;64.60;;;;;;4971755;28;20473;-91
2022/08/13 10:41:44;;;;;;;3.87;2.27;;;26.80;65.50;;;;;;4976672;28;20437;-90
2022/08/13 10:44:13;;;;;;;4.47;3.20;;;26.80;63.20;;;;;;4955771;28;20221;-90
2022/08/13 10:46:38;;;;;;;3.60;3.20;;;27.00;68.20;;;;;;4969681;28;21018;-91
2022/08/13 10:49:04;;;;;;;2.60;2.40;;;27.50;66.10;;;;;;4965224;28;20441;-91
2022/08/13 10:51:30;;;;;;;3.03;2.80;;;27.90;62.40;;;;;;4954178;28;20268;-90
2022/08/13 10:53:58;;;;;;;3.53;3.10;;;28.10;62.40;;;;;;4953937;28;20221;-91
2022/08/13 10:56:27;;;;;;;2.60;2.50;;;28.30;61.30;;;;;;4961610;28;20186;-92
2022/08/13 10:58:55;;;;;;;3.00;2.80;;;28.70;60.70;;;;;;4955367;28;21416;-91
2022/08/13 11:01:23;;;;;;;2.70;2.50;;;28.80;58.50;;;;;;4954246;28;20443;-91
2022/08/13 11:03:49;;;;;;;3.20;3.00;;;28.90;58.20;;;;;;4957003;28;20484;-91
2022/08/13 11:06:15;;;;;;;2.80;2.60;;;28.70;57.80;;;;;;4956274;28;21021;-91
2022/08/13 11:08:41;;;;;;;2.80;2.60;;;28.80;58.20;;;;;;4955417;28;20521;-91
2022/08/13 11:11:09;;;;;;;3.10;2.90;;;28.80;59.10;;;;;;4957888;28;20181;-91
2022/08/13 11:13:39;;;;;;;3.73;2.90;;;28.80;61.10;;;;;;4961098;28;20182;-91
2022/08/13 11:18:50;;;;;;;2.97;2.77;;;29.10;57.80;;;;;;4972574;28;20834;-91
2022/08/13 11:21:15;;;;;;;2.80;2.70;;;28.90;56.30;;;;;;4969296;28;20461;-90
2022/08/13 11:23:41;;;;;;;3.00;2.80;;;28.70;56.80;;;;;;4958055;28;20221;-89
2022/08/13 11:26:06;;;;;;;3.03;2.60;;;28.70;56.40;;;;;;4957010;28;20202;-90
2022/08/13 11:28:32;;;;;;;3.20;2.90;;;29.00;56.70;;;;;;4962995;28;20205;-90
2022/08/13 11:31:08;;;;;;;2.60;2.40;;;28.60;55.50;;;;;;4957043;28;20174;-92
2022/08/13 11:33:34;;;;;;;3.13;2.90;;;28.60;56.50;;;;;;4951339;28;20186;-90
2022/08/13 11:36:13;;;;;;;3.00;2.80;;;28.90;56.00;;;;;;4953915;28;20954;-92
2022/08/13 11:38:39;;;;;;;3.00;2.80;;;29.00;55.80;;;;;;4958195;28;20208;-90
2022/08/13 11:41:05;;;;;;;3.40;3.20;;;29.00;54.50;;;;;;4955472;28;20445;-90
2022/08/13 11:43:32;;;;;;;2.83;2.63;;;29.00;55.40;;;;;;4962742;28;20221;-90
2022/08/13 11:45:57;;;;;;;2.57;2.47;;;29.40;54.10;;;;;;4953312;28;20190;-90
2022/08/13 11:48:24;;;;;;;2.70;2.60;;;29.40;54.60;;;;;;4955479;28;20847;-88
2022/08/13 11:50:51;;;;;;;3.10;2.80;;;29.40;54.50;;;;;;4955212;28;20200;-89
2022/08/13 11:53:17;;;;;;;3.33;3.07;;;29.50;54.60;;;;;;4956474;28;20492;-90
2022/08/13 11:55:43;;;;;;;2.67;2.47;;;29.30;54.80;;;;;;4944847;28;20444;-90
2022/08/13 11:58:09;;;;;;;2.97;2.80;;;29.60;54.90;;;;;;4959335;28;21037;-90
2022/08/13 12:00:37;;;;;;;2.73;2.63;;;29.50;53.10;;;;;;4952642;28;20285;-91
2022/08/13 12:03:04;;;;;;;3.10;2.90;;;29.70;53.90;;;;;;4955707;28;20511;-92
2022/08/13 12:05:30;;;;;;;4.93;2.53;;;29.80;54.30;;;;;;4966942;28;20481;-92
2022/08/13 12:07:56;;;;;;;3.23;2.90;;;30.00;52.50;;;;;;4956268;28;20445;-91
2022/08/13 12:10:22;;;;;;;2.70;2.50;;;30.20;51.00;;;;;;4966421;28;20700;-93
2022/08/13 12:12:49;;;;;;;2.60;2.40;;;30.20;51.00;;;;;;4957895;28;20201;-92
2022/08/13 12:15:15;;;;;;;2.70;2.50;;;30.20;51.70;;;;;;4957073;28;20463;-92
2022/08/13 12:17:49;;;;;;;3.20;2.90;;;29.80;51.20;;;;;;4967764;28;22346;-93
2022/08/13 12:20:18;;;;;;;3.47;2.63;;;29.70;51.80;;;;;;4956672;28;20498;-91
2022/08/13 12:22:44;;;;;;;2.80;2.60;;;29.50;50.60;;;;;;4953500;28;20445;-90
2022/08/13 12:25:11;;;;;;;2.97;2.50;;;29.60;50.90;;;;;;4964643;28;20714;-91
2022/08/13 12:27:39;;;;;;;2.90;2.70;;;29.70;51.20;;;;;;4951327;28;20194;-91
2022/08/13 12:30:06;;;;;;;2.70;2.60;;;30.20;50.20;;;;;;4963654;28;20440;-92
2022/08/13 12:32:33;;;;;;;2.60;2.40;;;30.70;50.60;;;;;;4958969;28;20437;-92
2022/08/13 12:34:59;;;;;;;2.67;2.47;;;30.70;49.70;;;;;;4965274;28;20450;-91
2022/08/13 12:37:25;;;;;;;2.70;2.60;;;30.90;50.60;;;;;;4961144;28;20920;-91
2022/08/13 12:39:52;;;;;;;2.50;2.30;;;30.70;48.50;;;;;;4950093;28;20190;-91
2022/08/13 12:42:20;;;;;;;2.70;2.33;;;30.10;49.40;;;;;;4963931;28;20452;-91
2022/08/13 12:44:47;;;;;;;3.00;2.60;;;30.00;50.60;;;;;;4964766;28;20484;-91
2022/08/13 12:47:13;;;;;;;3.00;2.70;;;30.70;50.50;;;;;;4936092;28;20454;-94
2022/08/13 12:49:38;;;;;;;2.90;2.40;;;30.90;46.90;;;;;;4962606;28;20456;-91
2022/08/13 12:52:06;;;;;;;4.23;2.13;;;31.00;48.50;;;;;;4950232;28;20668;-92
2022/08/13 12:54:31;;;;;;;2.93;2.50;;;30.80;48.70;;;;;;4965704;28;20248;-93
2022/08/13 12:56:57;;;;;;;2.60;2.00;;;30.90;50.10;;;;;;4968601;28;20428;-91
2022/08/13 12:59:22;;;;;;;2.30;2.20;;;30.40;50.20;;;;;;4984509;28;20193;-90
2022/08/13 13:01:52;;;;;;;2.57;2.37;;;30.00;53.30;;;;;;4956260;28;20190;-92
2022/08/13 13:04:18;;;;;;;3.63;2.50;;;30.00;51.50;;;;;;4946975;28;20444;-92
2022/08/13 13:06:44;;;;;;;3.97;3.67;;;30.10;51.40;;;;;;4955151;28;21033;-92
2022/08/13 13:09:09;;;;;;;2.93;2.33;;;29.50;50.20;;;;;;4948715;28;20541;-92